Time;durP1;ratioP1;P1;durP2;ratioP2;P2;SDS_P1;SDS_P2;PMS_P1;PMS_P2;Temp;Humidity;BMP_temperature;BMP_pressure;BME280_temperature;BME280_humidity;BME280_pressure;Samples;Min_cycle;Max_cycle;Signal;HPM_P1;HPM_P2
2023/07/03 00:01:14;;;;;;;12.00;7.20;;;;;;;26.73;36.00;97870.47;5072247;28;20075;-69
2023/07/03 00:03:40;;;;;;;14.80;7.47;;;;;;;26.48;36.42;97856.22;5038488;28;20064;-69
2023/07/03 00:06:05;;;;;;;13.90;7.18;;;;;;;26.65;36.14;97857.59;5072606;28;20085;-68
2023/07/03 00:08:31;;;;;;;15.65;6.95;;;;;;;26.72;36.11;97874.31;5071274;28;20521;-69
2023/07/03 00:10:59;;;;;;;12.45;6.65;;;;;;;26.85;36.12;97855.22;5054494;28;20396;-69
2023/07/03 00:13:25;;;;;;;11.43;7.03;;;;;;;26.80;36.07;97863.47;5071327;28;20090;-69
2023/07/03 00:15:57;;;;;;;14.77;6.43;;;;;;;27.20;35.62;97867.25;5038015;28;20048;-69
2023/07/03 00:18:23;;;;;;;16.60;7.22;;;;;;;26.86;35.73;97858.75;5071087;28;20032;-69
2023/07/03 00:20:54;;;;;;;15.20;6.50;;;;;;;26.97;35.67;97869.09;5038649;28;20051;-69
2023/07/03 00:23:21;;;;;;;11.63;7.13;;;;;;;26.94;35.97;97853.38;5072524;28;20045;-71
2023/07/03 00:25:48;;;;;;;13.05;7.07;;;;;;;27.00;36.07;97851.34;5054624;28;20048;-70
2023/07/03 00:28:15;;;;;;;12.25;6.40;;;;;;;26.90;35.80;97870.63;5021704;28;20147;-70
2023/07/03 00:30:41;;;;;;;17.75;6.78;;;;;;;27.11;35.62;97855.47;5071046;28;20036;-70
2023/07/03 00:33:09;;;;;;;12.40;6.70;;;;;;;26.95;35.90;97859.63;5071174;28;20037;-70
2023/07/03 00:35:36;;;;;;;15.07;6.97;;;;;;;26.88;36.08;97853.81;5071055;28;20044;-70
2023/07/03 00:38:02;;;;;;;19.95;6.80;;;;;;;26.90;36.09;97859.75;5071727;28;20052;-70
2023/07/03 00:40:28;;;;;;;12.10;6.75;;;;;;;26.89;36.08;97850.78;5070750;28;20072;-70
2023/07/03 00:42:55;;;;;;;13.65;7.28;;;;;;;26.86;36.28;97848.66;5054152;28;20154;-70
2023/07/03 00:45:21;;;;;;;14.18;7.22;;;;;;;26.87;36.76;97857.63;5071790;28;20048;-70
2023/07/03 00:47:48;;;;;;;14.98;6.95;;;;;;;26.92;36.88;97855.63;5073384;28;20060;-67
2023/07/03 00:50:15;;;;;;;15.75;7.07;;;;;;;26.55;37.18;97866.72;5070658;28;20097;-68
2023/07/03 00:52:42;;;;;;;19.90;6.90;;;;;;;26.58;37.77;97855.22;5071102;28;20056;-67
2023/07/03 00:55:10;;;;;;;15.07;7.45;;;;;;;26.43;37.83;97853.59;5054168;28;20041;-69
2023/07/03 00:57:36;;;;;;;11.55;6.95;;;;;;;26.34;37.98;97851.88;5070956;28;20068;-70
2023/07/03 01:00:04;;;;;;;14.95;6.88;;;;;;;26.56;38.02;97853.91;5068845;28;20140;-69
2023/07/03 01:02:46;;;;;;;12.13;6.67;;;;;;;26.94;37.74;97861.53;5074510;28;20040;-69
2023/07/03 01:05:19;;;;;;;17.00;7.40;;;;;;;26.97;37.81;97866.38;5074071;28;20188;-70
2023/07/03 01:07:46;;;;;;;14.35;6.97;;;;;;;26.70;38.23;97854.72;5074166;28;20227;-69
2023/07/03 01:10:23;;;;;;;13.20;7.00;;;;;;;26.94;38.36;97855.31;5074130;28;20059;-69
2023/07/03 01:12:51;;;;;;;19.05;7.57;;;;;;;26.60;38.87;97844.03;5090854;28;20059;-69
2023/07/03 01:15:25;;;;;;;14.50;7.30;;;;;;;26.61;39.22;97856.53;5091822;28;20040;-70
2023/07/03 01:17:52;;;;;;;15.77;7.30;;;;;;;26.57;39.65;97861.75;5091781;28;20044;-70
2023/07/03 01:20:19;;;;;;;14.48;6.70;;;;;;;26.39;39.89;97870.84;5074135;28;20562;-70
2023/07/03 01:22:53;;;;;;;12.15;7.75;;;;;;;26.52;39.98;97865.41;5090896;28;20043;-70
2023/07/03 01:25:24;;;;;;;17.67;7.28;;;;;;;26.34;40.26;97866.31;5090984;28;20044;-70
2023/07/03 01:27:51;;;;;;;12.57;6.78;;;;;;;26.46;40.19;97863.88;5074627;28;20040;-70
2023/07/03 01:30:19;;;;;;;13.65;7.30;;;;;;;26.53;40.60;97866.22;5094788;28;20055;-68
2023/07/03 01:32:48;;;;;;;14.50;7.40;;;;;;;26.44;40.95;97868.03;5095171;28;20486;-69
2023/07/03 01:35:15;;;;;;;11.43;6.85;;;;;;;26.39;41.38;97866.22;5094270;28;20036;-68
2023/07/03 01:37:43;;;;;;;13.13;7.25;;;;;;;26.50;41.71;97866.81;5077237;28;20055;-69
2023/07/03 01:40:12;;;;;;;9.63;6.55;;;;;;;26.48;41.64;97869.03;5077202;28;20430;-68
2023/07/03 01:42:40;;;;;;;11.73;6.82;;;;;;;26.47;41.41;97872.88;5077154;28;20089;-68
2023/07/03 01:45:08;;;;;;;10.73;7.45;;;;;;;26.48;41.83;97875.28;5094200;28;20052;-69
2023/07/03 01:47:36;;;;;;;15.30;7.88;;;;;;;26.43;42.06;97869.94;5095114;28;20112;-67
2023/07/03 01:50:03;;;;;;;12.88;7.43;;;;;;;26.55;41.70;97863.19;5094981;28;20134;-68
2023/07/03 01:52:31;;;;;;;20.02;8.00;;;;;;;26.24;42.90;97869.25;5093927;28;20051;-68
2023/07/03 01:55:00;;;;;;;12.30;7.60;;;;;;;26.45;42.63;97856.03;5094806;28;20047;-68
2023/07/03 01:57:37;;;;;;;15.35;8.52;;;;;;;26.75;42.47;97854.63;5094817;28;20048;-68
2023/07/03 02:00:04;;;;;;;14.55;8.25;;;;;;;26.46;42.94;97871.28;5094117;28;20051;-68
2023/07/03 02:02:40;;;;;;;11.63;7.45;;;;;;;26.44;43.37;97877.03;5094400;28;20048;-69
2023/07/03 02:05:10;;;;;;;12.93;8.27;;;;;;;26.52;43.21;97852.91;5051694;28;20055;-69
2023/07/03 02:07:38;;;;;;;15.13;7.72;;;;;;;26.46;43.37;97866.63;5057076;28;20555;-69
2023/07/03 02:10:05;;;;;;;14.45;8.25;;;;;;;26.34;43.68;97879.09;5073734;28;20059;-68
2023/07/03 02:12:31;;;;;;;14.38;8.00;;;;;;;26.27;44.18;97867.81;5073438;28;20118;-68
2023/07/03 02:15:03;;;;;;;14.50;8.77;;;;;;;26.62;44.00;97869.84;5073721;28;20045;-68
2023/07/03 02:17:33;;;;;;;15.23;9.13;;;;;;;26.52;43.71;97878.22;5058659;28;20050;-68
2023/07/03 02:19:58;;;;;;;15.35;9.05;;;;;;;26.52;43.44;97868.13;5075697;28;20044;-69
2023/07/03 02:22:24;;;;;;;16.98;9.52;;;;;;;26.66;43.51;97883.69;5074020;28;20043;-67
2023/07/03 02:24:51;;;;;;;18.35;8.75;;;;;;;26.60;43.41;97884.88;5056883;28;20032;-68
2023/07/03 02:27:19;;;;;;;17.75;8.93;;;;;;;26.48;44.33;97880.75;5073297;28;20472;-68
2023/07/03 02:29:46;;;;;;;13.98;8.45;;;;;;;26.68;44.33;97889.66;5074143;28;20180;-68
2023/07/03 02:32:12;;;;;;;17.45;9.07;;;;;;;26.65;44.51;97882.09;5073034;28;20037;-68
2023/07/03 02:34:39;;;;;;;24.27;10.45;;;;;;;26.68;45.02;97870.59;5073998;28;20040;-69
2023/07/03 02:37:05;;;;;;;18.60;9.00;;;;;;;26.71;45.50;97889.84;5072833;28;20048;-68
2023/07/03 02:39:31;;;;;;;18.10;9.25;;;;;;;26.82;45.41;97895.88;5055885;28;20044;-69
2023/07/03 02:41:57;;;;;;;17.75;9.35;;;;;;;26.68;46.12;97903.28;5074391;28;20044;-69
2023/07/03 02:44:23;;;;;;;19.38;9.63;;;;;;;26.96;45.14;97891.22;5074065;28;20040;-69
2023/07/03 02:46:49;;;;;;;17.17;8.77;;;;;;;27.08;44.42;97902.38;5056682;28;20068;-70
2023/07/03 02:49:16;;;;;;;17.30;9.18;;;;;;;27.07;44.81;97892.59;5024255;28;20109;-69
2023/07/03 02:51:44;;;;;;;17.50;9.25;;;;;;;27.31;44.91;97893.16;5042433;28;20040;-69
2023/07/03 02:54:10;;;;;;;12.05;8.40;;;;;;;27.04;46.14;97896.75;5072987;28;20079;-69
2023/07/03 02:56:37;;;;;;;15.00;8.45;;;;;;;27.37;45.67;97890.03;5072954;28;20044;-69
2023/07/03 02:59:04;;;;;;;20.10;8.57;;;;;;;27.72;44.70;97886.44;5056979;28;20364;-68
2023/07/03 03:01:33;;;;;;;17.50;8.25;;;;;;;27.83;44.38;97895.19;5058180;28;20062;-68
2023/07/03 03:04:01;;;;;;;14.40;8.60;;;;;;;28.00;44.44;97893.41;5057602;28;20132;-69
2023/07/03 03:06:27;;;;;;;17.35;8.13;;;;;;;28.03;44.64;97890.03;5057674;28;20044;-69
2023/07/03 03:08:53;;;;;;;15.57;9.00;;;;;;;28.18;44.51;97898.94;5073058;28;20465;-69
2023/07/03 03:11:19;;;;;;;11.88;8.82;;;;;;;28.09;44.87;97892.66;5056044;28;20048;-70
2023/07/03 03:13:48;;;;;;;15.43;9.05;;;;;;;28.31;45.14;97912.50;5072553;28;20121;-69
2023/07/03 03:16:14;;;;;;;13.68;9.15;;;;;;;27.76;46.94;97919.38;5072448;28;20075;-69
2023/07/03 03:18:40;;;;;;;13.52;8.00;;;;;;;28.22;46.29;97908.13;5072828;28;20079;-69
2023/07/03 03:21:06;;;;;;;12.18;8.68;;;;;;;27.58;47.91;97923.91;5055605;28;20046;-69
2023/07/03 03:23:31;;;;;;;12.65;8.43;;;;;;;27.98;46.92;97913.94;5055788;28;20060;-69
2023/07/03 03:25:57;;;;;;;14.35;8.88;;;;;;;27.97;46.89;97906.84;5073238;28;20044;-69
2023/07/03 03:28:23;;;;;;;15.52;9.15;;;;;;;28.17;46.69;97911.78;5072467;28;20040;-69
2023/07/03 03:30:50;;;;;;;18.10;8.63;;;;;;;27.93;47.73;97914.88;5055374;28;20045;-69
2023/07/03 03:33:16;;;;;;;14.27;9.75;;;;;;;28.24;46.90;97925.00;5038910;28;20040;-69
2023/07/03 03:35:42;;;;;;;11.32;8.50;;;;;;;27.88;47.55;97931.38;5055459;28;20512;-69
2023/07/03 03:38:08;;;;;;;14.02;9.20;;;;;;;27.82;48.35;97918.13;5071821;28;20503;-70
2023/07/03 03:40:34;;;;;;;13.32;9.32;;;;;;;28.26;47.03;97920.03;5055372;28;20123;-70
2023/07/03 03:43:00;;;;;;;11.80;8.75;;;;;;;28.32;46.81;97916.06;5055544;28;20539;-70
2023/07/03 03:45:26;;;;;;;14.13;8.68;;;;;;;28.50;46.25;97929.50;5055326;28;20037;-68
2023/07/03 03:47:52;;;;;;;10.75;7.82;;;;;;;28.69;45.48;97943.72;5055157;28;20146;-68
2023/07/03 03:50:18;;;;;;;11.85;8.65;;;;;;;28.77;45.29;97950.34;5054814;28;20062;-68
2023/07/03 03:52:44;;;;;;;12.07;8.63;;;;;;;28.83;44.65;97949.88;5071252;28;20059;-67
2023/07/03 03:55:11;;;;;;;13.93;8.70;;;;;;;28.97;44.54;97952.50;5054841;28;20512;-66
2023/07/03 03:57:37;;;;;;;16.27;7.97;;;;;;;28.88;44.40;97952.47;5038188;28;20036;-67
2023/07/03 04:00:08;;;;;;;12.23;8.10;;;;;;;28.89;44.65;97961.47;5038490;28;20048;-68
2023/07/03 04:02:38;;;;;;;12.15;7.88;;;;;;;28.92;44.20;97969.84;5071355;28;20182;-67
2023/07/03 04:05:05;;;;;;;16.15;8.10;;;;;;;28.77;44.74;97959.34;5044082;28;20134;-70
2023/07/03 04:07:31;;;;;;;12.95;7.90;;;;;;;29.02;44.27;97966.81;5049644;28;20089;-69
2023/07/03 04:09:57;;;;;;;10.80;7.78;;;;;;;28.89;44.19;97959.53;5030165;28;20450;-67
2023/07/03 04:12:23;;;;;;;12.23;7.93;;;;;;;29.14;43.43;97958.03;5048623;28;20040;-69
2023/07/03 04:14:49;;;;;;;10.48;7.32;;;;;;;29.26;43.51;97969.19;5047782;28;20047;-67
2023/07/03 04:17:15;;;;;;;11.95;7.60;;;;;;;28.92;44.92;97969.03;5065568;28;20051;-68
2023/07/03 04:19:41;;;;;;;11.02;7.82;;;;;;;29.40;43.41;97980.75;5067400;28;20134;-68
2023/07/03 04:22:07;;;;;;;15.15;7.60;;;;;;;29.65;42.53;97987.41;5048248;28;20055;-69
2023/07/03 04:24:34;;;;;;;10.98;7.28;;;;;;;29.90;41.56;97986.63;5081429;28;20031;-68
2023/07/03 04:27:02;;;;;;;13.85;7.63;;;;;;;30.11;41.16;97990.28;5040721;28;20138;-68
2023/07/03 04:29:28;;;;;;;11.85;7.57;;;;;;;29.84;40.49;97988.72;5037752;28;20073;-67
2023/07/03 04:31:54;;;;;;;13.23;7.60;;;;;;;30.03;40.42;98005.59;5081290;28;20146;-71
2023/07/03 04:34:20;;;;;;;9.98;7.15;;;;;;;30.22;39.90;98000.63;5054830;28;20640;-72
2023/07/03 04:36:47;;;;;;;15.50;8.15;;;;;;;30.52;39.36;98007.03;5082501;28;20048;-72
2023/07/03 04:39:13;;;;;;;10.20;6.72;;;;;;;30.15;39.46;97999.50;5057140;28;20048;-74
2023/07/03 04:41:40;;;;;;;12.15;6.80;;;;;;;30.14;39.75;98001.41;5089531;28;20036;-72
2023/07/03 04:44:12;;;;;;;11.55;7.18;;;;;;;30.03;40.17;98016.56;5038929;28;20047;-68
2023/07/03 04:46:39;;;;;;;11.10;7.72;;;;;;;30.57;39.62;98026.84;5056932;28;20361;-67
2023/07/03 04:49:05;;;;;;;12.70;6.97;;;;;;;30.38;39.11;98029.16;5070587;28;20048;-69
2023/07/03 04:51:32;;;;;;;9.90;6.20;;;;;;;30.51;38.88;98025.41;5068985;28;20041;-70
2023/07/03 04:53:59;;;;;;;22.17;7.00;;;;;;;30.71;38.83;98040.34;5070378;28;20051;-70
2023/07/03 04:56:28;;;;;;;11.15;6.90;;;;;;;30.92;38.66;98039.31;5071492;28;20381;-73
2023/07/03 04:58:55;;;;;;;12.32;6.82;;;;;;;31.04;38.22;98038.66;5087035;28;20464;-73
2023/07/03 05:01:22;;;;;;;8.73;6.00;;;;;;;30.91;37.01;98045.97;5071636;28;20067;-72
2023/07/03 05:03:47;;;;;;;9.38;5.45;;;;;;;30.96;37.23;98055.94;5075572;28;20136;-68
2023/07/03 05:06:14;;;;;;;10.30;5.68;;;;;;;30.80;36.74;98054.84;5091711;28;20442;-72
2023/07/03 05:08:40;;;;;;;8.10;5.53;;;;;;;30.62;37.53;98064.22;5041389;28;20040;-71
2023/07/03 05:11:06;;;;;;;8.80;5.20;;;;;;;30.99;36.52;98066.25;5077798;28;20052;-73
2023/07/03 05:13:32;;;;;;;10.57;5.20;;;;;;;31.17;36.19;98076.81;5091253;28;20048;-72
2023/07/03 05:15:59;;;;;;;6.60;4.90;;;;;;;31.06;36.14;98075.56;5074450;28;20056;-75
2023/07/03 05:18:24;;;;;;;7.68;4.82;;;;;;;30.95;36.37;98076.28;5075429;28;20087;-70
2023/07/03 05:20:50;;;;;;;6.82;4.75;;;;;;;30.61;36.42;98065.38;5074642;28;20065;-71
2023/07/03 05:23:17;;;;;;;10.18;5.10;;;;;;;30.57;36.66;98083.56;5074635;28;20040;-71
2023/07/03 05:25:45;;;;;;;10.60;5.15;;;;;;;30.83;37.00;98079.69;5075169;28;20455;-69
2023/07/03 05:28:11;;;;;;;9.35;5.03;;;;;;;30.74;36.15;98089.84;5041118;28;20048;-70
2023/07/03 05:30:37;;;;;;;5.20;4.30;;;;;;;31.07;35.56;98098.31;5058184;28;20181;-70
2023/07/03 05:33:03;;;;;;;8.40;4.75;;;;;;;31.06;35.42;98102.22;5075199;28;20128;-70
2023/07/03 05:35:29;;;;;;;7.65;4.85;;;;;;;31.06;35.14;98096.72;5041389;28;20041;-70
2023/07/03 05:37:56;;;;;;;8.30;5.03;;;;;;;31.11;35.23;98104.75;5074094;28;20384;-72
2023/07/03 05:40:22;;;;;;;6.30;4.35;;;;;;;30.72;35.39;98107.75;5075432;28;20139;-71
2023/07/03 05:42:48;;;;;;;6.03;4.40;;;;;;;31.13;34.96;98106.06;5073902;28;20391;-72
2023/07/03 05:45:14;;;;;;;6.82;4.40;;;;;;;31.35;34.84;98107.78;5024452;28;20457;-72
2023/07/03 05:47:40;;;;;;;9.43;4.75;;;;;;;31.25;33.97;98104.53;5091622;28;20061;-72
2023/07/03 05:50:06;;;;;;;9.13;4.80;;;;;;;31.48;33.67;98116.91;5075848;28;20036;-72
2023/07/03 05:52:33;;;;;;;8.98;4.85;;;;;;;31.55;34.02;98117.19;5075075;28;20036;-71
2023/07/03 05:54:59;;;;;;;10.48;4.75;;;;;;;31.49;34.01;98102.06;5073991;28;20389;-71
2023/07/03 05:57:26;;;;;;;10.43;5.50;;;;;;;31.94;33.30;98116.81;5056634;28;20044;-71
2023/07/03 05:59:52;;;;;;;6.05;4.15;;;;;;;31.91;33.10;98128.47;5074766;28;20056;-70
2023/07/03 06:02:19;;;;;;;8.80;4.47;;;;;;;31.61;33.39;98135.09;5073628;28;20135;-70
2023/07/03 06:04:45;;;;;;;9.27;4.60;;;;;;;31.71;33.23;98134.69;5090030;28;20087;-70
2023/07/03 06:07:11;;;;;;;6.85;3.85;;;;;;;31.67;32.47;98151.06;5056908;28;20068;-70
2023/07/03 06:09:37;;;;;;;9.27;4.40;;;;;;;31.94;32.17;98145.09;5074913;28;20431;-69
2023/07/03 06:12:04;;;;;;;9.93;4.78;;;;;;;32.23;32.15;98147.81;5074558;28;20040;-71
2023/07/03 06:14:30;;;;;;;6.53;3.40;;;;;;;31.90;31.27;98148.84;5073672;28;20079;-71
2023/07/03 06:16:57;;;;;;;5.68;3.45;;;;;;;31.54;32.30;98146.56;5073709;28;20043;-71
2023/07/03 06:19:24;;;;;;;10.00;3.33;;;;;;;31.92;31.90;98157.56;5073325;28;20048;-71
2023/07/03 06:21:50;;;;;;;5.82;3.30;;;;;;;32.34;30.79;98151.78;5073315;28;20407;-70
2023/07/03 06:24:17;;;;;;;6.40;3.53;;;;;;;32.80;30.27;98163.72;5074296;28;20117;-71
2023/07/03 06:26:43;;;;;;;10.32;3.67;;;;;;;33.03;30.22;98151.22;5074563;28;20384;-70
2023/07/03 06:29:10;;;;;;;6.85;3.80;;;;;;;33.09;29.58;98156.13;5074944;28;20569;-71
2023/07/03 06:31:36;;;;;;;6.18;3.30;;;;;;;32.66;28.98;98148.28;5040067;28;20037;-70
2023/07/03 06:34:03;;;;;;;6.90;3.65;;;;;;;32.79;29.36;98160.16;5074441;28;20087;-71
2023/07/03 06:36:29;;;;;;;7.60;3.80;;;;;;;32.64;29.76;98150.56;5090227;28;20067;-71
2023/07/03 06:38:58;;;;;;;5.18;3.47;;;;;;;32.48;29.43;98155.09;5073117;28;20044;-72
2023/07/03 06:41:28;;;;;;;6.32;3.22;;;;;;;32.19;29.30;98149.63;5073183;28;20041;-71
2023/07/03 06:43:55;;;;;;;9.30;3.63;;;;;;;31.31;29.67;98169.13;5073221;28;20044;-72
2023/07/03 06:46:20;;;;;;;6.80;3.28;;;;;;;31.65;29.16;98164.28;5056500;28;20044;-72
2023/07/03 06:48:46;;;;;;;11.73;3.92;;;;;;;32.10;29.32;98165.38;5072928;28;20048;-72
2023/07/03 06:51:13;;;;;;;9.13;3.03;;;;;;;32.41;28.51;98170.50;5056328;28;20051;-71
2023/07/03 06:53:40;;;;;;;6.63;3.10;;;;;;;32.55;28.21;98171.84;5071848;28;20124;-72
2023/07/03 06:56:06;;;;;;;7.30;3.25;;;;;;;32.53;28.47;98171.38;5074176;28;20051;-72
2023/07/03 06:58:33;;;;;;;6.60;3.30;;;;;;;33.19;26.89;98186.00;5074531;28;20056;-72
2023/07/03 07:01:09;;;;;;;5.78;2.90;;;;;;;33.37;25.90;98178.34;5091407;28;20052;-72
2023/07/03 07:03:36;;;;;;;7.18;2.72;;;;;;;32.42;26.97;98177.59;5057357;28;20414;-72
2023/07/03 07:06:08;;;;;;;6.13;2.78;;;;;;;33.36;26.36;98190.50;5057056;28;20462;-72
2023/07/03 07:08:35;;;;;;;5.68;2.90;;;;;;;33.53;25.70;98193.91;5074160;28;20039;-72
2023/07/03 07:11:01;;;;;;;3.88;2.47;;;;;;;34.13;25.23;98182.09;5074165;28;20491;-72
2023/07/03 07:13:27;;;;;;;7.00;2.75;;;;;;;33.75;24.99;98192.66;5089917;28;20502;-72
2023/07/03 07:15:53;;;;;;;4.22;2.67;;;;;;;33.96;24.54;98196.13;5091893;28;20044;-72
2023/07/03 07:18:19;;;;;;;8.00;2.97;;;;;;;33.41;26.21;98204.09;5093005;28;20048;-72
2023/07/03 07:20:45;;;;;;;5.07;3.00;;;;;;;32.83;24.96;98199.56;5076148;28;20048;-71
2023/07/03 07:23:11;;;;;;;4.70;2.47;;;;;;;33.38;24.92;98210.25;5057750;28;20032;-72
2023/07/03 07:25:37;;;;;;;5.13;2.65;;;;;;;33.54;24.37;98212.03;5091022;28;20052;-72
2023/07/03 07:28:02;;;;;;;18.58;3.80;;;;;;;34.23;23.99;98195.41;5056121;28;20441;-72
2023/07/03 07:30:28;;;;;;;9.40;2.83;;;;;;;34.37;23.53;98220.66;5092714;28;20050;-72
2023/07/03 07:32:55;;;;;;;5.63;2.60;;;;;;;34.58;23.25;98212.28;5092476;28;20048;-72
2023/07/03 07:35:22;;;;;;;3.13;2.20;;;;;;;35.08;22.33;98191.28;5091612;28;20055;-72
2023/07/03 07:37:49;;;;;;;6.55;2.83;;;;;;;35.22;23.08;98208.25;5092072;28;20040;-72
2023/07/03 07:40:16;;;;;;;5.82;3.00;;;;;;;36.32;22.15;98218.22;5074664;28;20379;-72
2023/07/03 07:42:42;;;;;;;6.40;2.78;;;;;;;37.45;20.38;98232.50;5074743;28;20089;-72
2023/07/03 07:45:08;;;;;;;5.47;2.90;;;;;;;38.53;19.40;98238.31;5091194;28;20058;-72
2023/07/03 07:47:34;;;;;;;8.52;2.80;;;;;;;38.78;19.02;98226.38;5072758;28;20059;-73
2023/07/03 07:50:00;;;;;;;8.25;3.17;;;;;;;38.82;19.00;98229.22;5041151;28;20107;-73
2023/07/03 07:52:27;;;;;;;4.75;3.08;;;;;;;38.89;18.80;98228.50;5091188;28;20040;-74
2023/07/03 07:54:57;;;;;;;4.03;3.05;;;;;;;39.72;17.50;98236.25;5090887;28;20040;-73
2023/07/03 07:57:23;;;;;;;;;;;;;;;40.79;16.30;98240.28;5074666;28;20068;-73
2023/07/03 07:59:49;;;;;;;9.90;2.70;;;;;;;42.26;14.64;98230.72;5074118;28;19955;-74
2023/07/03 08:02:15;;;;;;;3.55;2.55;;;;;;;44.17;12.90;98238.63;5091228;28;20424;-74
2023/07/03 08:04:43;;;;;;;5.38;2.38;;;;;;;44.67;12.30;98242.59;5091007;28;20056;-73
2023/07/03 08:07:09;;;;;;;5.78;2.63;;;;;;;44.64;12.45;98240.63;5052799;28;20136;-74
2023/07/03 08:09:35;;;;;;;3.90;2.58;;;;;;;42.60;14.15;98245.81;5036479;28;20051;-74
2023/07/03 08:12:02;;;;;;;3.65;2.47;;;;;;;43.65;13.13;98265.00;5035411;28;20054;-74
2023/07/03 08:14:28;;;;;;;8.15;2.50;;;;;;;43.67;13.30;98247.81;5052474;28;20041;-73
2023/07/03 08:16:55;;;;;;;4.85;2.28;;;;;;;44.82;12.51;98264.84;5069142;28;20134;-74
2023/07/03 08:19:20;;;;;;;5.60;2.45;;;;;;;45.90;11.43;98262.66;5035841;28;20500;-74
2023/07/03 08:21:46;;;;;;;3.78;2.38;;;;;;;46.68;10.44;98282.59;5069032;28;20041;-74
2023/07/03 08:24:13;;;;;;;2.83;2.10;;;;;;;48.42;9.18;98272.78;5070045;28;20076;-74
2023/07/03 08:26:41;;;;;;;6.13;2.17;;;;;;;49.31;9.14;98274.72;5052851;28;20055;-74
2023/07/03 08:29:08;;;;;;;3.63;2.28;;;;;;;48.91;9.45;98272.25;5052635;28;20044;-74
2023/07/03 08:31:34;;;;;;;3.28;2.10;;;;;;;47.66;9.90;98281.88;5052404;28;20040;-74
2023/07/03 08:34:00;;;;;;;6.38;2.15;;;;;;;49.01;9.01;98282.44;5052364;28;20063;-73
2023/07/03 08:36:27;;;;;;;5.28;2.20;;;;;;;46.67;9.84;98283.81;5052452;28;20389;-74
2023/07/03 08:38:53;;;;;;;3.63;2.20;;;;;;;47.50;10.03;98277.72;5035578;28;20063;-73
2023/07/03 08:41:19;;;;;;;6.25;2.25;;;;;;;48.85;9.07;98287.34;5068925;28;20056;-74
2023/07/03 08:43:48;;;;;;;7.00;2.38;;;;;;;48.70;9.54;98280.50;5056230;28;20048;-74
2023/07/03 08:46:18;;;;;;;4.13;2.10;;;;;;;46.73;9.97;98289.75;5074087;28;20044;-73
2023/07/03 08:48:44;;;;;;;3.50;2.10;;;;;;;46.17;9.65;98297.13;5090811;28;20137;-73
2023/07/03 08:51:14;;;;;;;3.65;2.05;;;;;;;47.68;9.11;98302.69;5091387;28;20048;-74
2023/07/03 08:53:42;;;;;;;5.20;1.98;;;;;;;49.31;8.20;98297.31;5073112;28;20506;-74
2023/07/03 08:56:14;;;;;;;4.70;1.92;;;;;;;48.56;8.38;98292.13;5056908;28;20105;-74
2023/07/03 08:58:40;;;;;;;4.25;2.00;;;;;;;48.62;8.31;98304.47;5073195;28;20039;-74
2023/07/03 09:01:16;;;;;;;2.30;1.95;;;;;;;49.90;7.64;98303.19;5090550;28;20384;-73
2023/07/03 09:04:07;;;;;;;5.13;1.90;;;;;;;50.86;7.49;98318.56;5090970;28;20044;-72
2023/07/03 09:06:47;;;;;;;4.53;2.20;;;;;;;51.19;6.94;98320.59;5073093;28;20059;-73
2023/07/03 09:09:24;;;;;;;4.57;1.85;;;;;;;52.20;6.55;98317.88;5073732;28;20040;-73
2023/07/03 09:11:57;;;;;;;5.32;2.10;;;;;;;52.50;6.31;98321.91;5055620;28;20430;-73
2023/07/03 09:14:25;;;;;;;3.45;2.10;;;;;;;50.16;7.09;98313.28;5091961;28;20052;-74
2023/07/03 09:16:52;;;;;;;2.92;1.92;;;;;;;47.93;8.27;98313.41;5056497;28;20064;-73
2023/07/03 09:19:22;;;;;;;7.97;2.58;;;;;;;44.91;9.97;98316.38;5091097;28;20552;-73
2023/07/03 09:21:52;;;;;;;2.85;1.98;;;;;;;46.04;9.89;98315.78;5090939;28;20397;-73
2023/07/03 09:24:35;;;;;;;3.75;2.13;;;;;;;46.54;8.91;98333.44;5073159;28;20048;-74
2023/07/03 09:27:24;;;;;;;5.03;1.88;;;;;;;48.27;8.23;98336.31;5072809;28;20168;-73
2023/07/03 09:29:50;;;;;;;3.85;1.92;;;;;;;48.99;7.76;98349.78;5073032;28;20109;-73
2023/07/03 09:32:28;;;;;;;3.92;1.80;;;;;;;49.20;7.01;98342.75;5073011;28;20032;-73
2023/07/03 09:35:15;;;;;;;2.92;1.48;;;;;;;49.36;6.55;98359.69;5089064;28;20040;-73
2023/07/03 09:37:51;;;;;;;3.47;1.65;;;;;;;50.48;6.18;98361.88;5072896;28;20054;-74
2023/07/03 09:40:33;;;;;;;5.45;1.92;;;;;;;51.18;5.08;98366.34;5089693;28;20070;-74
2023/07/03 09:43:00;;;;;;;4.40;1.70;;;;;;;52.07;5.15;98354.06;5056039;28;20055;-74
2023/07/03 09:45:35;;;;;;;5.10;1.90;;;;;;;51.77;5.64;98366.16;5089031;28;20036;-74
2023/07/03 09:48:03;;;;;;;4.43;2.22;;;;;;;49.76;6.50;98360.13;5089002;28;20375;-74
2023/07/03 09:50:37;;;;;;;4.97;1.95;;;;;;;49.90;6.49;98354.81;5042461;28;20483;-73
2023/07/03 09:53:05;;;;;;;8.57;1.85;;;;;;;49.16;6.80;98333.63;5076534;28;20060;-73
2023/07/03 09:55:31;;;;;;;5.03;1.83;;;;;;;49.52;7.08;98347.53;5093435;28;20068;-73
2023/07/03 09:57:57;;;;;;;5.05;1.75;;;;;;;50.27;6.77;98361.75;5092900;28;20074;-73
2023/07/03 10:00:25;;;;;;;4.28;2.00;;;;;;;51.49;5.67;98370.03;5059771;28;20143;-73
2023/07/03 10:02:55;;;;;;;2.70;1.67;;;;;;;51.16;5.95;98372.47;5092684;28;20487;-73
2023/07/03 10:05:33;;;;;;;4.50;1.70;;;;;;;50.72;6.05;98367.94;5093371;28;20077;-73
2023/07/03 10:08:05;;;;;;;8.10;1.95;;;;;;;48.57;6.94;98361.34;5093153;28;20062;-73
2023/07/03 10:10:33;;;;;;;3.80;1.73;;;;;;;48.13;7.35;98356.38;5093358;28;20051;-73
2023/07/03 10:13:04;;;;;;;6.85;1.85;;;;;;;48.78;6.97;98344.69;5075770;28;20104;-73
2023/07/03 10:15:34;;;;;;;3.35;1.70;;;;;;;47.92;7.94;98366.13;5094202;28;20054;-73
2023/07/03 10:18:18;;;;;;;2.70;1.60;;;;;;;49.27;7.24;98367.97;5059236;28;20522;-74
2023/07/03 10:20:46;;;;;;;6.45;1.90;;;;;;;48.40;6.95;98354.13;5076183;28;20039;-72
2023/07/03 10:23:32;;;;;;;4.07;1.70;;;;;;;47.58;8.04;98368.44;5092956;28;20040;-73
2023/07/03 10:26:05;;;;;;;5.18;1.90;;;;;;;47.94;7.70;98360.03;5072397;28;20117;-73
2023/07/03 10:28:41;;;;;;;3.20;2.05;;;;;;;48.94;7.25;98374.91;5072621;28;20407;-73
2023/07/03 10:31:16;;;;;;;5.05;1.80;;;;;;;50.17;6.63;98374.97;5072386;28;20087;-73
2023/07/03 10:33:46;;;;;;;4.80;1.70;;;;;;;50.96;6.14;98388.13;5055611;28;20558;-73
2023/07/03 10:36:16;;;;;;;4.82;1.65;;;;;;;50.80;5.93;98382.63;5072518;28;20041;-74
2023/07/03 10:39:05;;;;;;;6.68;1.60;;;;;;;51.19;5.74;98387.72;5038945;28;20048;-73
2023/07/03 10:41:42;;;;;;;4.37;2.00;;;;;;;50.44;6.51;98383.78;5072418;28;20048;-73
2023/07/03 10:44:30;;;;;;;3.20;1.70;;;;;;;47.89;7.83;98378.22;5055407;28;20087;-72
2023/07/03 10:47:02;;;;;;;6.63;2.30;;;;;;;46.24;8.92;98386.91;5055181;28;20048;-71
2023/07/03 10:49:33;;;;;;;4.65;1.75;;;;;;;45.00;10.10;98378.34;5072077;28;20139;-71
2023/07/03 10:52:23;;;;;;;6.97;2.17;;;;;;;44.00;10.69;98393.53;5071782;28;20050;-71
2023/07/03 10:55:04;;;;;;;8.63;1.80;;;;;;;44.57;10.21;98385.53;5073723;28;20044;-72
2023/07/03 10:57:56;;;;;;;4.60;2.40;;;;;;;45.11;10.50;98392.28;5073789;28;20048;-72
2023/07/03 11:00:32;;;;;;;5.20;2.08;;;;;;;44.13;10.45;98391.84;5056770;28;20453;-72
2023/07/03 11:03:33;;;;;;;5.30;2.17;;;;;;;42.70;11.68;98384.66;5073477;28;20040;-71
2023/07/03 11:06:04;;;;;;;3.42;2.30;;;;;;;40.50;13.36;98383.25;5055988;28;20052;-68
2023/07/03 11:08:43;;;;;;;8.30;2.28;;;;;;;41.04;12.82;98388.06;5055783;28;20036;-70
2023/07/03 11:11:33;;;;;;;8.05;2.38;;;;;;;40.31;13.79;98391.81;5056202;28;20147;-73
2023/07/03 11:14:17;;;;;;;7.95;2.45;;;;;;;40.16;13.76;98395.63;5072792;28;20076;-74
2023/07/03 11:17:11;;;;;;;6.22;2.03;;;;;;;39.08;14.40;98392.22;5073320;28;20060;-72
2023/07/03 11:19:59;;;;;;;6.63;2.25;;;;;;;38.27;14.56;98401.97;5075594;28;20084;-72
2023/07/03 11:23:01;;;;;;;7.53;2.33;;;;;;;37.62;14.79;98403.03;5058322;28;20131;-73
2023/07/03 11:25:36;;;;;;;6.45;2.15;;;;;;;38.39;14.91;98408.16;5061546;28;20052;-71
2023/07/03 11:28:04;;;;;;;6.90;2.42;;;;;;;38.39;15.27;98402.59;5073763;28;20048;-72
2023/07/03 11:30:32;;;;;;;7.60;2.40;;;;;;;37.22;15.23;98389.50;5072778;28;20138;-72
2023/07/03 11:32:59;;;;;;;8.18;2.20;;;;;;;36.86;15.92;98390.66;5092428;28;20048;-72
2023/07/03 11:35:26;;;;;;;6.68;2.35;;;;;;;36.94;15.41;98427.59;5075674;28;20074;-72
2023/07/03 11:38:00;;;;;;;6.07;2.72;;;;;;;36.44;16.29;98363.91;5082437;28;20069;-72
2023/07/03 11:40:29;;;;;;;6.30;2.50;;;;;;;36.25;16.35;98411.59;5081128;28;20044;-72